Seabourn Quest — C6YZ5 — position and weather

sailwx.info

Track history (hours):
 
Tides and Currents Weather Stations Pressure Air Temp Water Temp Dewpoint Dewpoint Depression Visibility Wind Speed Wind Dir Waves Ship Positions

Seabourn Quest

Last reported at 2017-Mar-20 15:24 UTC. Time now 2017-Mar-23 18:11 UTC.
Position N 00°05' W 050°59'.

Length 512 m; draft 6.7 m.

Type: Ship. MMSI: 311038900.

Date/timePositionNaut miles runAvg speedWind from/ knotsBaromVisibWave heightAir tempDewpointWater temp
2017-Mar-20 15:24N 00°05' W 050°59'1315.2
2017-Mar-20 14:33S 00°05' W 051°07'1212.3
2017-Mar-20 13:33S 00°12' W 051°17'  
2017-Mar-17 22:06S 03°07' W 059°54'711.7
2017-Mar-17 21:32S 03°10' W 059°59'3 3.2
2017-Mar-17 20:33S 03°08' W 060°02'0 0.0
2017-Mar-17 19:32S 03°08' W 060°02'0 0.0
2017-Mar-17 11:32S 03°08' W 060°02'0 0.0
2017-Mar-17 10:33S 03°08' W 060°02'0 0.0
2017-Mar-17 09:31S 03°08' W 060°02'0 0.0
2017-Mar-17 08:31S 03°08' W 060°02'0 0.0
2017-Mar-17 07:31S 03°08' W 060°02'0 0.0
2017-Mar-17 06:31S 03°08' W 060°02'0 0.0
2017-Mar-17 05:31S 03°08' W 060°02'0 0.0
2017-Mar-17 04:31S 03°08' W 060°02'0 0.0
2017-Mar-17 03:31S 03°08' W 060°02'0 0.0
2017-Mar-17 02:31S 03°08' W 060°02'0 0.0
2017-Mar-17 01:27S 03°08' W 060°02'0 0.0
2017-Mar-17 00:30S 03°08' W 060°02'0 0.0
2017-Mar-16 23:33S 03°08' W 060°02'0 0.0
2017-Mar-16 22:25S 03°08' W 060°02'0 0.0
2017-Mar-16 19:13S 03°08' W 060°02'0 0.0
2017-Mar-16 18:31S 03°08' W 060°02'0 0.0
2017-Mar-16 17:28S 03°08' W 060°02'0 0.0
2017-Mar-16 16:31S 03°08' W 060°02'0 0.0
2017-Mar-16 15:13S 03°08' W 060°02'0 0.0
2017-Mar-16 14:33S 03°08' W 060°02'0 0.0
2017-Mar-16 13:33S 03°08' W 060°02'0 0.0
2017-Mar-16 12:33S 03°08' W 060°02'0 0.0
2017-Mar-16 11:33S 03°08' W 060°02'0 0.0
2017-Mar-16 10:21S 03°08' W 060°02'0 0.0
2017-Mar-16 09:33S 03°08' W 060°02'0 0.0
2017-Mar-16 08:33S 03°08' W 060°02'0 0.0
2017-Mar-16 07:33S 03°08' W 060°02'0 0.0
2017-Mar-16 06:33S 03°08' W 060°02'0 0.0
2017-Mar-16 05:33S 03°08' W 060°02'0 0.0
2017-Mar-16 04:33S 03°08' W 060°02'0 0.0
2017-Mar-16 03:21S 03°08' W 060°02'0 0.0
2017-Mar-16 02:33S 03°08' W 060°02'0 0.0
2017-Mar-16 01:27S 03°08' W 060°02'0 0.0
2017-Mar-16 00:33S 03°08' W 060°02'  
2017-Mar-12 13:23S 00°12' W 051°17'1214.2
2017-Mar-12 12:33S 00°06' W 051°08'3 3.4
2017-Mar-12 11:33S 00°03' W 051°05'8 8.1
2017-Mar-12 10:31N 00°03' W 051°00'0 0.1
2017-Mar-12 09:33N 00°03' W 051°00'10 9.6
2017-Mar-12 08:33N 00°10' W 050°53'  
Track history (hours):
 
Tides and Currents Weather Stations Pressure Air Temp Water Temp Dewpoint Dewpoint Depression Visibility Wind Speed Wind Dir Waves Ship Positions

Seabourn Quest

Last reported at 2017-Mar-20 15:24 UTC. Time now 2017-Mar-23 18:11 UTC.
Position N 00°05' W 050°59'.

Length 512 m; draft 6.7 m.

Type: Ship. MMSI: 311038900.

Date/timePositionNaut miles runAvg speedWind from/ knotsBaromVisibWave heightAir tempDewpointWater temp
2017-Mar-20 15:24N 00°05' W 050°59'1315.2
2017-Mar-20 14:33S 00°05' W 051°07'1212.3
2017-Mar-20 13:33S 00°12' W 051°17'  
2017-Mar-17 22:06S 03°07' W 059°54'711.7
2017-Mar-17 21:32S 03°10' W 059°59'3 3.2
2017-Mar-17 20:33S 03°08' W 060°02'0 0.0
2017-Mar-17 19:32S 03°08' W 060°02'0 0.0
2017-Mar-17 11:32S 03°08' W 060°02'0 0.0
2017-Mar-17 10:33S 03°08' W 060°02'0 0.0
2017-Mar-17 09:31S 03°08' W 060°02'0 0.0
2017-Mar-17 08:31S 03°08' W 060°02'0 0.0
2017-Mar-17 07:31S 03°08' W 060°02'0 0.0
2017-Mar-17 06:31S 03°08' W 060°02'0 0.0
2017-Mar-17 05:31S 03°08' W 060°02'0 0.0
2017-Mar-17 04:31S 03°08' W 060°02'0 0.0
2017-Mar-17 03:31S 03°08' W 060°02'0 0.0
2017-Mar-17 02:31S 03°08' W 060°02'0 0.0
2017-Mar-17 01:27S 03°08' W 060°02'0 0.0
2017-Mar-17 00:30S 03°08' W 060°02'0 0.0
2017-Mar-16 23:33S 03°08' W 060°02'0 0.0
2017-Mar-16 22:25S 03°08' W 060°02'0 0.0
2017-Mar-16 19:13S 03°08' W 060°02'0 0.0
2017-Mar-16 18:31S 03°08' W 060°02'0 0.0
2017-Mar-16 17:28S 03°08' W 060°02'0 0.0
2017-Mar-16 16:31S 03°08' W 060°02'0 0.0
2017-Mar-16 15:13S 03°08' W 060°02'0 0.0
2017-Mar-16 14:33S 03°08' W 060°02'0 0.0
2017-Mar-16 13:33S 03°08' W 060°02'0 0.0
2017-Mar-16 12:33S 03°08' W 060°02'0 0.0
2017-Mar-16 11:33S 03°08' W 060°02'0 0.0
2017-Mar-16 10:21S 03°08' W 060°02'0 0.0
2017-Mar-16 09:33S 03°08' W 060°02'0 0.0
2017-Mar-16 08:33S 03°08' W 060°02'0 0.0
2017-Mar-16 07:33S 03°08' W 060°02'0 0.0
2017-Mar-16 06:33S 03°08' W 060°02'0 0.0
2017-Mar-16 05:33S 03°08' W 060°02'0 0.0
2017-Mar-16 04:33S 03°08' W 060°02'0 0.0
2017-Mar-16 03:21S 03°08' W 060°02'0 0.0
2017-Mar-16 02:33S 03°08' W 060°02'0 0.0
2017-Mar-16 01:27S 03°08' W 060°02'0 0.0
2017-Mar-16 00:33S 03°08' W 060°02'  
2017-Mar-12 13:23S 00°12' W 051°17'1214.2
2017-Mar-12 12:33S 00°06' W 051°08'3 3.4
2017-Mar-12 11:33S 00°03' W 051°05'8 8.1
2017-Mar-12 10:31N 00°03' W 051°00'0 0.1
2017-Mar-12 09:33N 00°03' W 051°00'10 9.6
2017-Mar-12 08:33N 00°10' W 050°53'  

Dump ship's entire track history